createdAt,value
2018-04-11T00:00:25.632Z,59.80
2018-04-11T00:02:53.855Z,60.00
2018-04-11T00:05:22.098Z,60.20
2018-04-11T00:07:50.209Z,60.20
2018-04-11T00:10:18.410Z,60.10
2018-04-11T00:12:46.615Z,60.30
2018-04-11T00:15:14.791Z,60.30
2018-04-11T00:17:42.961Z,60.30
2018-04-11T00:20:11.209Z,60.20
2018-04-11T00:22:39.349Z,60.20
2018-04-11T00:25:07.559Z,60.20
2018-04-11T00:27:35.699Z,60.10
2018-04-11T00:30:03.848Z,60.20
2018-04-11T00:32:32.038Z,60.30
2018-04-11T00:35:00.188Z,60.20
2018-04-11T00:37:28.367Z,60.40
2018-04-11T00:39:56.530Z,60.60
2018-04-11T00:42:24.702Z,60.60
2018-04-11T00:44:52.858Z,60.60
2018-04-11T00:47:21.013Z,60.60
2018-04-11T00:49:49.142Z,60.50
2018-04-11T00:52:17.326Z,60.50
2018-04-11T00:54:45.460Z,60.60
2018-04-11T00:57:14.404Z,60.60
2018-04-11T00:59:42.539Z,60.60
2018-04-11T01:02:11.468Z,60.70
2018-04-11T01:04:39.629Z,60.60
2018-04-11T01:07:07.876Z,60.70
2018-04-11T01:09:35.980Z,60.70
2018-04-11T01:12:04.151Z,60.80
2018-04-11T01:14:32.333Z,60.80
2018-04-11T01:17:00.550Z,60.90
2018-04-11T01:19:28.710Z,60.90
2018-04-11T01:21:56.847Z,60.90
2018-04-11T01:24:25.748Z,61.10
2018-04-11T01:26:53.989Z,61.00
2018-04-11T01:29:22.116Z,61.10
2018-04-11T01:31:50.309Z,61.20
2018-04-11T01:34:18.561Z,61.20
2018-04-11T01:36:46.869Z,61.30
2018-04-11T01:39:15.050Z,61.40
2018-04-11T01:41:43.226Z,61.50
2018-04-11T01:44:11.396Z,61.50
2018-04-11T01:46:39.583Z,61.60
2018-04-11T01:49:07.783Z,61.60
2018-04-11T01:51:36.538Z,61.60
2018-04-11T01:54:05.445Z,61.80
2018-04-11T01:56:33.550Z,61.80
2018-04-11T01:59:02.431Z,61.90
2018-04-11T02:01:30.612Z,61.80
2018-04-11T02:03:58.779Z,61.90
2018-04-11T02:06:26.923Z,61.90
2018-04-11T02:08:55.841Z,61.90
2018-04-11T02:11:24.717Z,62.00
2018-04-11T02:13:52.949Z,62.00
2018-04-11T02:16:21.100Z,62.10
2018-04-11T02:18:49.323Z,62.10
2018-04-11T02:21:17.445Z,62.10
2018-04-11T02:23:45.600Z,62.20
2018-04-11T02:26:13.758Z,62.10
2018-04-11T02:28:41.976Z,62.10
2018-04-11T02:31:10.133Z,62.20
2018-04-11T02:33:38.260Z,62.20
2018-04-11T02:36:06.428Z,62.30
2018-04-11T02:38:34.800Z,62.30
2018-04-11T02:41:02.918Z,62.30
2018-04-11T02:43:31.093Z,62.30
2018-04-11T02:45:59.250Z,62.40
2018-04-11T02:48:27.501Z,62.50
2018-04-11T02:50:56.409Z,62.50
2018-04-11T02:53:24.577Z,62.50
2018-04-11T02:55:53.493Z,63.30
2018-04-11T02:58:21.859Z,62.60
2018-04-11T03:00:50.008Z,62.70
2018-04-11T03:03:18.168Z,62.80
2018-04-11T03:05:46.419Z,62.80
2018-04-11T03:08:14.532Z,63.00
2018-04-11T03:10:42.649Z,63.10
2018-04-11T03:13:10.808Z,63.10
2018-04-11T03:15:38.929Z,63.30
2018-04-11T03:18:07.308Z,63.30
2018-04-11T03:20:35.411Z,63.40
2018-04-11T03:23:03.620Z,63.40
2018-04-11T03:25:31.740Z,63.50
2018-04-11T03:27:59.914Z,63.60
2018-04-11T03:30:28.067Z,63.60
2018-04-11T03:32:56.954Z,64.00
2018-04-11T03:35:25.848Z,64.00
2018-04-11T03:37:54.037Z,64.00
2018-04-11T03:40:22.253Z,64.20
2018-04-11T03:42:50.378Z,64.10
2018-04-11T03:45:18.496Z,64.20
2018-04-11T03:47:46.627Z,64.20
2018-04-11T03:50:14.765Z,64.30
2018-04-11T03:52:42.887Z,64.40
2018-04-11T03:55:11.000Z,64.30
2018-04-11T03:57:39.166Z,64.40
2018-04-11T04:00:07.330Z,64.40
2018-04-11T04:02:35.436Z,64.50
2018-04-11T04:05:03.624Z,64.40
2018-04-11T04:07:31.767Z,64.50
2018-04-11T04:10:00.677Z,64.70
2018-04-11T04:12:28.860Z,64.70
2018-04-11T04:15:08.765Z,64.80
2018-04-11T04:17:48.642Z,64.70
2018-04-11T04:20:28.663Z,64.70
2018-04-11T04:22:57.623Z,64.90
2018-04-11T04:25:25.781Z,64.90
2018-04-11T04:27:53.895Z,65.10
2018-04-11T04:30:22.008Z,65.10
2018-04-11T04:32:51.115Z,65.30
2018-04-11T04:35:19.295Z,65.30
2018-04-11T04:37:47.551Z,65.30
2018-04-11T04:40:16.432Z,65.30
2018-04-11T04:42:44.615Z,65.20
2018-04-11T04:45:12.740Z,65.30
2018-04-11T04:47:40.924Z,65.30
2018-04-11T04:50:09.049Z,65.30
2018-04-11T04:52:37.195Z,65.40
2018-04-11T04:55:05.554Z,65.40
2018-04-11T04:57:33.680Z,65.40
2018-04-11T05:00:03.050Z,65.60
2018-04-11T05:02:31.190Z,65.60
2018-04-11T05:04:59.332Z,65.60
2018-04-11T05:07:27.519Z,65.60
2018-04-11T05:09:56.624Z,65.70
2018-04-11T05:12:24.754Z,65.60
2018-04-11T05:14:52.920Z,65.70
2018-04-11T05:17:21.812Z,65.80
2018-04-11T05:19:49.990Z,65.70
2018-04-11T05:22:18.547Z,65.80
2018-04-11T05:24:47.482Z,66.50
2018-04-11T05:27:15.717Z,66.00
2018-04-11T05:29:43.808Z,66.00
2018-04-11T05:32:11.958Z,66.10
2018-04-11T05:34:40.223Z,66.10
2018-04-11T05:37:08.383Z,66.20
2018-04-11T05:39:36.513Z,66.30
2018-04-11T05:42:05.499Z,66.30
2018-04-11T05:44:34.382Z,66.50
2018-04-11T05:47:03.249Z,66.40
2018-04-11T05:49:31.590Z,66.30
2018-04-11T05:52:00.364Z,66.40
2018-04-11T05:54:29.317Z,66.40
2018-04-11T05:56:57.420Z,66.40
2018-04-11T05:59:25.631Z,66.40
2018-04-11T06:01:54.552Z,66.20
2018-04-11T06:04:22.906Z,66.10
2018-04-11T06:06:51.087Z,65.90
2018-04-11T06:09:19.946Z,65.40
2018-04-11T06:11:48.433Z,65.40
2018-04-11T06:14:16.767Z,65.30
2018-04-11T06:16:45.004Z,65.10
2018-04-11T06:19:13.204Z,65.60
2018-04-11T06:21:42.093Z,64.40
2018-04-11T06:24:10.203Z,64.50
2018-04-11T06:26:38.430Z,64.40
2018-04-11T06:29:06.594Z,64.40
2018-04-11T06:31:34.719Z,64.30
2018-04-11T06:34:02.896Z,64.40
2018-04-11T06:36:31.075Z,64.40
2018-04-11T06:39:00.015Z,64.30
2018-04-11T06:41:28.146Z,64.30
2018-04-11T06:43:56.489Z,64.40
2018-04-11T06:46:24.683Z,64.40
2018-04-11T06:48:52.900Z,64.50
2018-04-11T06:51:21.063Z,64.50
2018-04-11T06:53:49.190Z,64.60
2018-04-11T06:56:18.114Z,64.50
2018-04-11T06:58:46.380Z,64.50
2018-04-11T07:01:14.532Z,64.50
2018-04-11T07:03:42.714Z,64.60
2018-04-11T07:06:10.852Z,64.60
2018-04-11T07:08:39.039Z,64.40
2018-04-11T07:11:07.264Z,64.40
2018-04-11T07:13:35.419Z,64.30
2018-04-11T07:16:04.382Z,64.20
2018-04-11T07:18:33.303Z,64.10
2018-04-11T07:21:01.448Z,64.10
2018-04-11T07:23:29.725Z,64.00
2018-04-11T07:25:57.982Z,63.90
2018-04-11T07:28:26.107Z,64.00
2018-04-11T07:30:54.371Z,63.90
2018-04-11T07:33:22.719Z,63.90
2018-04-11T07:35:50.962Z,63.90
2018-04-11T07:38:19.533Z,63.90
2018-04-11T07:40:47.701Z,63.80
2018-04-11T07:43:15.811Z,63.80
2018-04-11T07:45:43.933Z,63.70
2018-04-11T07:48:12.109Z,63.70
2018-04-11T07:50:40.242Z,63.60
2018-04-11T07:53:08.750Z,63.60
2018-04-11T07:55:36.986Z,63.70
2018-04-11T07:58:05.812Z,63.80
2018-04-11T08:00:34.123Z,64.40
2018-04-11T08:03:02.348Z,63.50
2018-04-11T08:05:30.556Z,63.50
2018-04-11T08:07:59.256Z,63.40
2018-04-11T08:10:27.478Z,63.30
2018-04-11T08:12:55.645Z,63.20
2018-04-11T08:15:23.851Z,63.10
2018-04-11T08:17:52.035Z,63.10
2018-04-11T08:20:21.053Z,62.90
2018-04-11T08:22:49.238Z,62.80
2018-04-11T08:25:17.359Z,62.70
2018-04-11T08:27:45.499Z,62.60
2018-04-11T08:30:13.872Z,62.50
2018-04-11T08:32:42.065Z,62.50
2018-04-11T08:35:10.286Z,62.30
2018-04-11T08:37:39.166Z,62.20
2018-04-11T08:40:08.065Z,62.10
2018-04-11T08:42:36.312Z,62.00
2018-04-11T08:45:05.209Z,62.00
2018-04-11T08:47:33.502Z,62.00
2018-04-11T08:50:01.660Z,62.00
2018-04-11T08:52:29.828Z,61.80
2018-04-11T08:54:58.037Z,61.80
2018-04-11T08:57:26.957Z,61.80
2018-04-11T08:59:55.337Z,61.80
2018-04-11T09:02:24.265Z,61.70
2018-04-11T09:04:52.401Z,61.50
2018-04-11T09:07:20.678Z,61.50
2018-04-11T09:09:48.781Z,61.40
2018-04-11T09:12:17.080Z,61.00
2018-04-11T09:14:45.215Z,61.00
2018-04-11T09:17:13.376Z,60.70
2018-04-11T09:19:41.554Z,60.60
2018-04-11T09:22:10.468Z,60.40
2018-04-11T09:24:38.585Z,60.40
2018-04-11T09:27:06.828Z,60.40
2018-04-11T09:29:34.965Z,60.30
2018-04-11T09:32:03.197Z,60.20
2018-04-11T09:34:31.310Z,60.20
2018-04-11T09:36:59.425Z,60.10
2018-04-11T09:39:28.444Z,60.10
2018-04-11T09:41:56.623Z,60.10
2018-04-11T09:44:24.739Z,60.00
2018-04-11T09:46:52.969Z,60.00
2018-04-11T09:49:21.211Z,60.00
2018-04-11T09:51:49.490Z,60.00
2018-04-11T09:54:17.608Z,60.00
2018-04-11T09:56:45.860Z,60.00
2018-04-11T09:59:13.982Z,60.00
2018-04-11T10:01:56.969Z,59.90
2018-04-11T10:04:25.848Z,60.10
2018-04-11T10:06:53.968Z,60.00
2018-04-11T10:09:22.842Z,60.40
2018-04-11T10:11:51.100Z,60.30
2018-04-11T10:14:19.229Z,60.20
2018-04-11T10:16:47.480Z,60.10
2018-04-11T10:19:15.656Z,59.90
2018-04-11T10:21:43.873Z,59.60
2018-04-11T10:24:11.993Z,59.50
2018-04-11T10:26:40.181Z,59.30
2018-04-11T10:29:08.442Z,59.10
2018-04-11T10:31:38.272Z,58.80
2018-04-11T10:34:06.381Z,58.60
2018-04-11T10:36:34.618Z,58.30
2018-04-11T10:39:02.846Z,58.00
2018-04-11T10:41:31.221Z,57.80
2018-04-11T10:43:59.338Z,57.50
2018-04-11T10:46:27.534Z,57.20
2018-04-11T10:48:56.461Z,56.10
2018-04-11T10:51:24.739Z,56.10
2018-04-11T10:53:53.615Z,55.90
2018-04-11T10:56:21.837Z,55.80
2018-04-11T10:58:49.969Z,55.70
2018-04-11T11:01:18.245Z,55.70
2018-04-11T11:03:46.361Z,55.70
2018-04-11T11:06:14.479Z,55.60
2018-04-11T11:08:42.608Z,55.20
2018-04-11T11:11:11.483Z,55.60
2018-04-11T11:13:39.666Z,54.90
2018-04-11T11:16:07.847Z,55.00
2018-04-11T11:18:36.732Z,54.70
2018-04-11T11:21:05.644Z,54.80
2018-04-11T11:23:33.880Z,54.80
2018-04-11T11:26:02.048Z,55.10
2018-04-11T11:28:30.204Z,55.20
2018-04-11T11:30:58.347Z,55.20
2018-04-11T11:33:27.229Z,54.90
2018-04-11T11:35:55.446Z,54.80
2018-04-11T11:38:23.651Z,54.70
2018-04-11T11:40:51.818Z,54.30
2018-04-11T11:43:20.008Z,54.50
2018-04-11T11:45:48.333Z,54.50
2018-04-11T11:48:16.546Z,54.30
2018-04-11T11:50:44.861Z,54.10
2018-04-11T11:53:13.083Z,54.30
2018-04-11T11:55:42.053Z,53.80
2018-04-11T11:58:10.241Z,53.80
2018-04-11T12:00:38.479Z,53.70
2018-04-11T12:03:06.657Z,53.70
2018-04-11T12:05:34.796Z,53.80
2018-04-11T12:08:14.980Z,54.20
2018-04-11T12:10:43.129Z,54.10
2018-04-11T12:13:11.253Z,54.20
2018-04-11T12:15:39.379Z,53.90
2018-04-11T12:18:07.519Z,53.70
2018-04-11T12:20:35.631Z,53.70
2018-04-11T12:23:03.864Z,53.80
2018-04-11T12:25:32.117Z,53.80
2018-04-11T12:28:00.354Z,53.60
2018-04-11T12:30:28.577Z,53.60
2018-04-11T12:32:56.807Z,53.40
2018-04-11T12:35:24.930Z,53.90
2018-04-11T12:37:53.169Z,53.90
2018-04-11T12:40:21.389Z,53.50
2018-04-11T12:42:49.561Z,53.70
2018-04-11T12:45:17.700Z,53.50
2018-04-11T12:47:46.915Z,53.10
2018-04-11T12:50:15.068Z,52.70
2018-04-11T12:52:43.190Z,52.90
2018-04-11T12:55:12.102Z,52.90
2018-04-11T12:57:40.243Z,52.90
2018-04-11T13:00:09.277Z,53.00
2018-04-11T13:02:37.439Z,53.00
2018-04-11T13:05:06.490Z,53.00
2018-04-11T13:07:34.639Z,52.90
2018-04-11T13:10:03.550Z,53.30
2018-04-11T13:12:31.715Z,53.20
2018-04-11T13:15:00.005Z,53.00
2018-04-11T13:17:28.213Z,53.00
2018-04-11T13:19:56.537Z,53.10
2018-04-11T13:22:24.745Z,52.70
2018-04-11T13:24:52.868Z,52.60
2018-04-11T13:27:20.992Z,52.60
2018-04-11T13:29:49.702Z,52.30
2018-04-11T13:32:17.857Z,52.30
2018-04-11T13:34:46.071Z,52.20
2018-04-11T13:37:14.244Z,52.20
2018-04-11T13:39:42.367Z,52.70
2018-04-11T13:42:10.546Z,52.50
2018-04-11T13:44:38.736Z,52.30
2018-04-11T13:47:06.873Z,52.00
2018-04-11T13:49:35.413Z,52.20
2018-04-11T13:52:03.573Z,52.70
2018-04-11T13:54:31.781Z,52.40
2018-04-11T13:56:59.905Z,51.70
2018-04-11T13:59:28.807Z,51.90
2018-04-11T14:01:58.503Z,51.80
2018-04-11T14:04:27.420Z,51.80
2018-04-11T14:06:55.580Z,51.80
2018-04-11T14:09:24.488Z,51.90
2018-04-11T14:11:52.792Z,51.80
2018-04-11T14:14:20.965Z,51.70
2018-04-11T14:16:49.102Z,51.60
2018-04-11T14:19:17.213Z,51.30
2018-04-11T14:21:46.116Z,50.80
2018-04-11T14:24:14.254Z,50.70
2018-04-11T14:26:42.364Z,50.40
2018-04-11T14:29:10.533Z,50.80
2018-04-11T14:31:39.328Z,50.50
2018-04-11T14:34:07.492Z,50.30
2018-04-11T14:36:36.482Z,51.20
2018-04-11T14:39:06.337Z,50.30
2018-04-11T14:41:34.674Z,50.20
2018-04-11T14:44:02.857Z,50.20
2018-04-11T14:46:31.804Z,50.30
2018-04-11T14:48:59.957Z,50.20
2018-04-11T14:51:28.418Z,50.30
2018-04-11T14:53:56.547Z,49.60
2018-04-11T14:56:25.455Z,49.50
2018-04-11T14:58:55.502Z,49.80
2018-04-11T15:01:23.755Z,49.20
2018-04-11T15:03:52.013Z,49.20
2018-04-11T15:06:20.980Z,49.20
2018-04-11T15:08:49.116Z,49.20
2018-04-11T15:11:17.404Z,49.10
2018-04-11T15:13:45.609Z,48.80
2018-04-11T15:16:14.703Z,49.60
2018-04-11T15:18:43.236Z,49.60
2018-04-11T15:21:11.379Z,49.90
2018-04-11T15:23:40.994Z,49.50
2018-04-11T15:26:09.861Z,49.50
2018-04-11T15:28:38.263Z,49.50
2018-04-11T15:31:06.950Z,49.30
2018-04-11T15:33:35.167Z,49.60
2018-04-11T15:36:03.358Z,49.80
2018-04-11T15:38:31.507Z,50.00
2018-04-11T15:40:59.672Z,50.10
2018-04-11T15:43:27.852Z,49.80
2018-04-11T15:45:56.008Z,49.60
2018-04-11T15:48:24.395Z,49.30
2018-04-11T15:50:53.779Z,49.70
2018-04-11T15:53:22.044Z,49.70
2018-04-11T15:55:50.196Z,49.50
2018-04-11T15:58:18.467Z,49.60
2018-04-11T16:00:47.321Z,49.70
2018-04-11T16:03:15.459Z,49.60
2018-04-11T16:05:43.572Z,49.80
2018-04-11T16:08:11.701Z,49.70
2018-04-11T16:10:42.854Z,50.50
2018-04-11T16:13:11.295Z,49.60
2018-04-11T16:15:39.380Z,49.30
2018-04-11T16:18:07.505Z,49.40
2018-04-11T16:20:36.414Z,49.10
2018-04-11T16:23:04.688Z,49.90
2018-04-11T16:25:32.989Z,48.80
2018-04-11T16:28:01.161Z,48.70
2018-04-11T16:30:29.324Z,48.80
2018-04-11T16:32:57.513Z,49.50
2018-04-11T16:35:25.619Z,49.10
2018-04-11T16:37:53.742Z,49.20
2018-04-11T16:40:21.947Z,49.20
2018-04-11T16:42:50.850Z,49.50
2018-04-11T16:45:18.951Z,49.50
2018-04-11T16:47:47.098Z,49.60
2018-04-11T16:50:15.210Z,49.60
2018-04-11T16:52:43.336Z,49.70
2018-04-11T16:55:11.744Z,50.10
2018-04-11T16:57:39.843Z,50.10
2018-04-11T17:00:08.743Z,49.90
2018-04-11T17:02:36.866Z,49.80
2018-04-11T17:05:05.004Z,49.60
2018-04-11T17:07:33.124Z,49.90
2018-04-11T17:10:02.069Z,49.70
2018-04-11T17:12:30.184Z,49.70
2018-04-11T17:14:59.140Z,50.40
2018-04-11T17:17:27.267Z,50.40
2018-04-11T17:19:55.393Z,50.60
2018-04-11T17:22:35.414Z,50.50
2018-04-11T17:25:15.444Z,50.30
2018-04-11T17:27:55.377Z,50.20
2018-04-11T17:30:35.343Z,49.90
2018-04-11T17:33:03.508Z,50.20
2018-04-11T17:35:31.613Z,50.40
2018-04-11T17:38:00.527Z,50.80
2018-04-11T17:40:28.825Z,50.50
2018-04-11T17:42:56.980Z,50.30
2018-04-11T17:45:25.076Z,50.00
2018-04-11T17:47:53.205Z,50.00
2018-04-11T17:50:21.328Z,50.00
2018-04-11T17:52:49.456Z,50.40
2018-04-11T17:55:17.576Z,50.20
2018-04-11T17:57:45.705Z,50.20
2018-04-11T18:00:14.068Z,50.30
2018-04-11T18:02:42.185Z,50.70
2018-04-11T18:05:10.306Z,51.00
2018-04-11T18:07:38.397Z,51.20
2018-04-11T18:10:06.601Z,51.50
2018-04-11T18:12:34.743Z,51.20
2018-04-11T18:15:02.872Z,51.20
2018-04-11T18:17:32.220Z,51.50
2018-04-11T18:20:00.358Z,51.50
2018-04-11T18:22:28.469Z,51.70
2018-04-11T18:24:56.628Z,51.70
2018-04-11T18:27:25.512Z,51.70
2018-04-11T18:29:53.726Z,51.70
2018-04-11T18:32:21.795Z,51.80
2018-04-11T18:34:50.012Z,51.90
2018-04-11T18:37:18.140Z,52.30
2018-04-11T18:39:46.260Z,52.40
2018-04-11T18:42:14.416Z,52.40
2018-04-11T18:44:42.611Z,52.50
2018-04-11T18:47:10.704Z,52.40
2018-04-11T18:49:38.857Z,52.40
2018-04-11T18:52:07.119Z,52.40
2018-04-11T18:54:35.263Z,52.80
2018-04-11T18:57:03.419Z,52.80
2018-04-11T18:59:31.559Z,52.90
2018-04-11T19:02:00.510Z,53.00
2018-04-11T19:04:28.719Z,53.10
2018-04-11T19:06:56.836Z,53.30
2018-04-11T19:09:24.951Z,53.40
2018-04-11T19:11:53.846Z,53.40
2018-04-11T19:14:22.713Z,53.50
2018-04-11T19:16:50.834Z,53.40
2018-04-11T19:19:19.784Z,53.50
2018-04-11T19:21:47.935Z,53.50
2018-04-11T19:24:16.122Z,53.70
2018-04-11T19:26:45.063Z,53.60
2018-04-11T19:29:13.224Z,53.50
2018-04-11T19:31:41.381Z,53.80
2018-04-11T19:34:09.507Z,53.90
2018-04-11T19:36:38.380Z,54.30
2018-04-11T19:39:06.551Z,54.20
2018-04-11T19:41:34.672Z,54.20
2018-04-11T19:44:02.788Z,54.10
2018-04-11T19:46:30.917Z,54.30
2018-04-11T19:48:59.036Z,54.30
2018-04-11T19:51:27.143Z,54.30
2018-04-11T19:53:55.316Z,54.40
2018-04-11T19:56:23.451Z,54.70
2018-04-11T19:58:51.615Z,54.80
2018-04-11T20:01:19.748Z,55.00
2018-04-11T20:03:47.970Z,55.10
2018-04-11T20:06:16.286Z,55.10
2018-04-11T20:08:44.415Z,55.10
2018-04-11T20:11:12.566Z,55.10
2018-04-11T20:13:40.684Z,55.20
2018-04-11T20:16:08.804Z,55.30
2018-04-11T20:18:37.048Z,55.40
2018-04-11T20:21:05.308Z,55.60
2018-04-11T20:23:33.606Z,55.80
2018-04-11T20:26:01.752Z,55.80
2018-04-11T20:28:30.656Z,56.10
2018-04-11T20:30:59.547Z,56.70
2018-04-11T20:33:28.435Z,56.20
2018-04-11T20:35:57.347Z,57.00
2018-04-11T20:38:28.161Z,56.30
2018-04-11T20:40:56.410Z,56.30
2018-04-11T20:43:24.515Z,56.20
2018-04-11T20:45:52.642Z,56.40
2018-04-11T20:48:20.752Z,56.50
2018-04-11T20:50:48.858Z,56.60
2018-04-11T20:53:17.020Z,56.70
2018-04-11T20:55:45.124Z,56.80
2018-04-11T20:58:13.248Z,56.90
2018-04-11T21:00:41.363Z,57.00
2018-04-11T21:03:10.297Z,57.30
2018-04-11T21:05:39.241Z,57.40
2018-04-11T21:08:07.422Z,57.40
2018-04-11T21:10:35.576Z,57.60
2018-04-11T21:13:03.789Z,57.60
2018-04-11T21:15:31.937Z,57.80
2018-04-11T21:18:00.079Z,57.80
2018-04-11T21:20:28.204Z,57.80
2018-04-11T21:22:56.320Z,57.90
2018-04-11T21:25:24.452Z,58.00
2018-04-11T21:27:52.571Z,58.10
2018-04-11T21:30:20.821Z,58.20
2018-04-11T21:32:49.054Z,58.20
2018-04-11T21:35:18.009Z,58.40
2018-04-11T21:37:46.251Z,58.40
2018-04-11T21:40:14.458Z,58.60
2018-04-11T21:42:42.548Z,58.60
2018-04-11T21:45:11.440Z,58.70
2018-04-11T21:47:39.641Z,58.70
2018-04-11T21:50:07.798Z,58.80
2018-04-11T21:52:36.667Z,59.00
2018-04-11T21:55:04.818Z,58.90
2018-04-11T21:57:33.000Z,58.70
2018-04-11T22:00:01.094Z,59.10
2018-04-11T22:02:29.235Z,59.80
2018-04-11T22:04:57.345Z,59.20
2018-04-11T22:07:25.550Z,59.30
2018-04-11T22:09:53.643Z,59.50
2018-04-11T22:12:22.504Z,59.60
2018-04-11T22:14:50.627Z,59.60
2018-04-11T22:17:18.759Z,59.80
2018-04-11T22:19:46.879Z,59.90
2018-04-11T22:22:15.037Z,60.00
2018-04-11T22:24:43.902Z,60.10
2018-04-11T22:27:12.048Z,60.00
2018-04-11T22:29:40.192Z,60.30
2018-04-11T22:32:08.300Z,60.30
2018-04-11T22:34:36.416Z,60.50
2018-04-11T22:37:04.647Z,60.60
2018-04-11T22:39:32.795Z,60.80
2018-04-11T22:42:01.671Z,61.00
2018-04-11T22:44:30.586Z,61.00
2018-04-11T22:46:58.690Z,61.00
2018-04-11T22:49:26.795Z,61.10
2018-04-11T22:51:54.910Z,61.30
2018-04-11T22:54:23.788Z,61.30
2018-04-11T22:56:51.900Z,61.30
2018-04-11T22:59:20.005Z,61.30
2018-04-11T23:01:48.158Z,61.40
2018-04-11T23:04:16.288Z,61.50
2018-04-11T23:06:44.406Z,61.60
2018-04-11T23:09:13.347Z,61.90
2018-04-11T23:11:41.492Z,61.90
2018-04-11T23:14:09.630Z,62.10
2018-04-11T23:16:37.768Z,62.90
2018-04-11T23:19:05.895Z,62.30
2018-04-11T23:21:34.772Z,62.70
2018-04-11T23:24:02.903Z,63.30
2018-04-11T23:26:31.015Z,62.70
2018-04-11T23:28:59.130Z,62.70
2018-04-11T23:31:27.995Z,63.10
2018-04-11T23:33:56.113Z,63.10
2018-04-11T23:36:24.256Z,63.20
2018-04-11T23:38:52.419Z,63.20
2018-04-11T23:41:20.550Z,63.40
2018-04-11T23:43:48.656Z,63.50
2018-04-11T23:46:17.522Z,63.20
2018-04-11T23:48:45.636Z,63.50
2018-04-11T23:51:13.744Z,63.50
2018-04-11T23:53:42.631Z,63.70
2018-04-11T23:56:10.783Z,63.70
2018-04-11T23:58:38.883Z,63.70
